sensor_id;sensor_type;location;lat;lon;timestamp;P1;durP1;ratioP1;P2;durP2;ratioP2
22565;SDS011;11449;51.330;19.378;2023-07-30T00:02:56;99.00;;;33.70;;
22565;SDS011;11449;51.330;19.378;2023-07-30T00:08:04;114.80;;;41.70;;
22565;SDS011;11449;51.330;19.378;2023-07-30T00:13:11;138.60;;;68.90;;
22565;SDS011;11449;51.330;19.378;2023-07-30T00:18:19;102.30;;;47.70;;
22565;SDS011;11449;51.330;19.378;2023-07-30T00:23:27;133.90;;;58.30;;
22565;SDS011;11449;51.330;19.378;2023-07-30T00:28:34;173.60;;;96.10;;
22565;SDS011;11449;51.330;19.378;2023-07-30T00:33:42;169.50;;;97.60;;
22565;SDS011;11449;51.330;19.378;2023-07-30T00:38:50;13.70;;;4.50;;
22565;SDS011;11449;51.330;19.378;2023-07-30T00:43:57;68.50;;;18.40;;
22565;SDS011;11449;51.330;19.378;2023-07-30T00:49:05;95.20;;;12.50;;
22565;SDS011;11449;51.330;19.378;2023-07-30T00:54:13;86.90;;;26.10;;
22565;SDS011;11449;51.330;19.378;2023-07-30T00:59:20;98.70;;;35.10;;
22565;SDS011;11449;51.330;19.378;2023-07-30T01:04:29;105.40;;;39.50;;
22565;SDS011;11449;51.330;19.378;2023-07-30T01:09:37;80.30;;;25.90;;
22565;SDS011;11449;51.330;19.378;2023-07-30T01:14:45;68.30;;;30.20;;
22565;SDS011;11449;51.330;19.378;2023-07-30T01:19:54;122.90;;;93.90;;
22565;SDS011;11449;51.330;19.378;2023-07-30T01:25:05;133.30;;;83.70;;
22565;SDS011;11449;51.330;19.378;2023-07-30T01:30:16;71.50;;;30.40;;
22565;SDS011;11449;51.330;19.378;2023-07-30T01:35:26;101.40;;;62.70;;
22565;SDS011;11449;51.330;19.378;2023-07-30T01:40:34;64.20;;;17.10;;
22565;SDS011;11449;51.330;19.378;2023-07-30T01:45:42;80.80;;;30.00;;
22565;SDS011;11449;51.330;19.378;2023-07-30T01:50:49;80.30;;;42.50;;
22565;SDS011;11449;51.330;19.378;2023-07-30T01:55:57;80.10;;;26.60;;
22565;SDS011;11449;51.330;19.378;2023-07-30T02:01:05;107.80;;;60.80;;
22565;SDS011;11449;51.330;19.378;2023-07-30T02:06:12;127.60;;;76.40;;
22565;SDS011;11449;51.330;19.378;2023-07-30T02:11:20;184.50;;;135.70;;
22565;SDS011;11449;51.330;19.378;2023-07-30T02:16:27;133.90;;;97.50;;
22565;SDS011;11449;51.330;19.378;2023-07-30T02:21:35;144.20;;;80.70;;
22565;SDS011;11449;51.330;19.378;2023-07-30T02:26:45;163.20;;;113.30;;
22565;SDS011;11449;51.330;19.378;2023-07-30T02:31:53;151.70;;;89.30;;
22565;SDS011;11449;51.330;19.378;2023-07-30T02:37:00;173.40;;;123.80;;
22565;SDS011;11449;51.330;19.378;2023-07-30T02:42:08;220.20;;;167.70;;
22565;SDS011;11449;51.330;19.378;2023-07-30T02:47:15;143.10;;;98.40;;
22565;SDS011;11449;51.330;19.378;2023-07-30T02:52:23;210.50;;;178.20;;
22565;SDS011;11449;51.330;19.378;2023-07-30T02:57:31;109.80;;;82.30;;
22565;SDS011;11449;51.330;19.378;2023-07-30T03:02:39;161.80;;;102.50;;
22565;SDS011;11449;51.330;19.378;2023-07-30T03:07:47;192.80;;;159.60;;
22565;SDS011;11449;51.330;19.378;2023-07-30T03:12:54;161.30;;;113.70;;
22565;SDS011;11449;51.330;19.378;2023-07-30T03:17:57;179.50;;;128.80;;
22565;SDS011;11449;51.330;19.378;2023-07-30T03:23:05;11.30;;;4.10;;
22565;SDS011;11449;51.330;19.378;2023-07-30T03:28:12;15.30;;;4.60;;
22565;SDS011;11449;51.330;19.378;2023-07-30T03:33:20;54.90;;;14.50;;
22565;SDS011;11449;51.330;19.378;2023-07-30T03:38:28;54.90;;;10.80;;
22565;SDS011;11449;51.330;19.378;2023-07-30T03:43:35;64.60;;;16.20;;
22565;SDS011;11449;51.330;19.378;2023-07-30T03:48:43;87.70;;;29.80;;
22565;SDS011;11449;51.330;19.378;2023-07-30T03:53:51;59.10;;;18.40;;
22565;SDS011;11449;51.330;19.378;2023-07-30T03:58:59;62.90;;;8.70;;
22565;SDS011;11449;51.330;19.378;2023-07-30T04:04:06;121.50;;;51.20;;
22565;SDS011;11449;51.330;19.378;2023-07-30T04:09:14;99.30;;;46.10;;
22565;SDS011;11449;51.330;19.378;2023-07-30T04:14:22;106.10;;;42.00;;
22565;SDS011;11449;51.330;19.378;2023-07-30T04:19:29;136.00;;;65.20;;
22565;SDS011;11449;51.330;19.378;2023-07-30T04:24:37;109.60;;;44.50;;
22565;SDS011;11449;51.330;19.378;2023-07-30T04:29:45;119.70;;;52.60;;
22565;SDS011;11449;51.330;19.378;2023-07-30T04:34:53;117.90;;;42.20;;
22565;SDS011;11449;51.330;19.378;2023-07-30T04:40:01;134.40;;;50.70;;
22565;SDS011;11449;51.330;19.378;2023-07-30T04:45:09;87.20;;;35.50;;
22565;SDS011;11449;51.330;19.378;2023-07-30T04:50:20;88.40;;;21.30;;
22565;SDS011;11449;51.330;19.378;2023-07-30T04:55:28;105.50;;;35.80;;
22565;SDS011;11449;51.330;19.378;2023-07-30T05:00:35;132.50;;;42.60;;
22565;SDS011;11449;51.330;19.378;2023-07-30T05:05:43;130.60;;;49.40;;
22565;SDS011;11449;51.330;19.378;2023-07-30T05:10:47;69.00;;;25.10;;
22565;SDS011;11449;51.330;19.378;2023-07-30T05:15:54;69.40;;;18.20;;
22565;SDS011;11449;51.330;19.378;2023-07-30T05:21:02;111.20;;;58.80;;
22565;SDS011;11449;51.330;19.378;2023-07-30T05:26:10;185.00;;;138.20;;
22565;SDS011;11449;51.330;19.378;2023-07-30T05:31:17;201.10;;;147.00;;
22565;SDS011;11449;51.330;19.378;2023-07-30T05:36:25;204.90;;;172.60;;
22565;SDS011;11449;51.330;19.378;2023-07-30T05:41:33;387.70;;;352.60;;
22565;SDS011;11449;51.330;19.378;2023-07-30T05:46:40;273.30;;;245.00;;
22565;SDS011;11449;51.330;19.378;2023-07-30T05:51:48;411.10;;;370.80;;
22565;SDS011;11449;51.330;19.378;2023-07-30T05:56:56;105.80;;;42.80;;
22565;SDS011;11449;51.330;19.378;2023-07-30T06:02:04;104.10;;;31.90;;
22565;SDS011;11449;51.330;19.378;2023-07-30T06:07:12;85.70;;;27.90;;
22565;SDS011;11449;51.330;19.378;2023-07-30T06:12:19;124.10;;;59.90;;
22565;SDS011;11449;51.330;19.378;2023-07-30T06:17:27;115.60;;;51.20;;
22565;SDS011;11449;51.330;19.378;2023-07-30T06:22:35;102.10;;;33.90;;
22565;SDS011;11449;51.330;19.378;2023-07-30T06:27:43;97.60;;;37.00;;
22565;SDS011;11449;51.330;19.378;2023-07-30T06:32:46;111.10;;;45.00;;
22565;SDS011;11449;51.330;19.378;2023-07-30T06:37:53;95.30;;;30.10;;
22565;SDS011;11449;51.330;19.378;2023-07-30T06:43:01;115.10;;;41.40;;
22565;SDS011;11449;51.330;19.378;2023-07-30T06:48:09;119.80;;;40.00;;
22565;SDS011;11449;51.330;19.378;2023-07-30T06:53:16;99.90;;;30.10;;
22565;SDS011;11449;51.330;19.378;2023-07-30T06:58:24;93.60;;;37.80;;
22565;SDS011;11449;51.330;19.378;2023-07-30T07:03:32;68.10;;;16.50;;
22565;SDS011;11449;51.330;19.378;2023-07-30T07:08:40;82.60;;;25.60;;
22565;SDS011;11449;51.330;19.378;2023-07-30T07:13:47;94.10;;;32.10;;
22565;SDS011;11449;51.330;19.378;2023-07-30T07:18:55;104.40;;;31.60;;
22565;SDS011;11449;51.330;19.378;2023-07-30T07:24:03;131.90;;;53.50;;
22565;SDS011;11449;51.330;19.378;2023-07-30T07:29:05;127.70;;;49.50;;
22565;SDS011;11449;51.330;19.378;2023-07-30T07:34:13;89.70;;;27.90;;
22565;SDS011;11449;51.330;19.378;2023-07-30T07:39:21;102.00;;;38.70;;
22565;SDS011;11449;51.330;19.378;2023-07-30T07:44:29;110.00;;;44.10;;
22565;SDS011;11449;51.330;19.378;2023-07-30T07:49:36;103.40;;;44.60;;
22565;SDS011;11449;51.330;19.378;2023-07-30T07:54:44;81.30;;;29.90;;
22565;SDS011;11449;51.330;19.378;2023-07-30T07:59:52;130.30;;;56.40;;
22565;SDS011;11449;51.330;19.378;2023-07-30T08:05:00;163.80;;;73.50;;
22565;SDS011;11449;51.330;19.378;2023-07-30T08:10:08;234.10;;;149.30;;
22565;SDS011;11449;51.330;19.378;2023-07-30T08:15:16;188.80;;;109.60;;
22565;SDS011;11449;51.330;19.378;2023-07-30T08:20:24;486.40;;;443.70;;
22565;SDS011;11449;51.330;19.378;2023-07-30T08:25:32;11.10;;;6.80;;
22565;SDS011;11449;51.330;19.378;2023-07-30T08:30:40;9.60;;;6.10;;
22565;SDS011;11449;51.330;19.378;2023-07-30T08:35:47;13.40;;;7.90;;
22565;SDS011;11449;51.330;19.378;2023-07-30T08:40:55;18.30;;;7.30;;
22565;SDS011;11449;51.330;19.378;2023-07-30T08:46:03;183.30;;;126.40;;
22565;SDS011;11449;51.330;19.378;2023-07-30T08:51:11;446.20;;;404.80;;
22565;SDS011;11449;51.330;19.378;2023-07-30T08:56:20;49.80;;;7.50;;
22565;SDS011;11449;51.330;19.378;2023-07-30T09:01:29;105.80;;;61.80;;
22565;SDS011;11449;51.330;19.378;2023-07-30T09:06:40;959.70;;;892.00;;
22565;SDS011;11449;51.330;19.378;2023-07-30T09:11:50;675.00;;;615.90;;
22565;SDS011;11449;51.330;19.378;2023-07-30T09:16:58;1081.10;;;999.70;;
22565;SDS011;11449;51.330;19.378;2023-07-30T09:22:06;427.80;;;387.90;;
22565;SDS011;11449;51.330;19.378;2023-07-30T09:27:14;99.50;;;59.20;;
22565;SDS011;11449;51.330;19.378;2023-07-30T09:32:26;200.00;;;156.20;;
22565;SDS011;11449;51.330;19.378;2023-07-30T09:37:37;197.00;;;167.20;;
22565;SDS011;11449;51.330;19.378;2023-07-30T09:42:46;239.30;;;213.80;;
22565;SDS011;11449;51.330;19.378;2023-07-30T09:47:54;104.80;;;72.20;;
22565;SDS011;11449;51.330;19.378;2023-07-30T09:53:05;249.70;;;205.50;;
22565;SDS011;11449;51.330;19.378;2023-07-30T09:58:13;653.50;;;602.10;;
22565;SDS011;11449;51.330;19.378;2023-07-30T10:03:20;1091.90;;;999.90;;
22565;SDS011;11449;51.330;19.378;2023-07-30T10:08:29;311.30;;;280.30;;
22565;SDS011;11449;51.330;19.378;2023-07-30T10:13:39;711.60;;;655.80;;
22565;SDS011;11449;51.330;19.378;2023-07-30T10:18:47;805.90;;;745.70;;
22565;SDS011;11449;51.330;19.378;2023-07-30T10:24:03;1076.50;;;998.20;;
22565;SDS011;11449;51.330;19.378;2023-07-30T10:29:15;748.30;;;692.50;;
22565;SDS011;11449;51.330;19.378;2023-07-30T10:34:26;1103.70;;;999.90;;
22565;SDS011;11449;51.330;19.378;2023-07-30T10:39:35;554.70;;;503.00;;
22565;SDS011;11449;51.330;19.378;2023-07-30T10:44:46;176.50;;;139.30;;
22565;SDS011;11449;51.330;19.378;2023-07-30T10:49:54;432.70;;;393.00;;
22565;SDS011;11449;51.330;19.378;2023-07-30T11:00:11;1081.70;;;999.60;;
22565;SDS011;11449;51.330;19.378;2023-07-30T11:05:19;421.00;;;383.70;;
22565;SDS011;11449;51.330;19.378;2023-07-30T11:10:27;534.30;;;489.90;;
22565;SDS011;11449;51.330;19.378;2023-07-30T11:15:40;613.50;;;565.60;;
22565;SDS011;11449;51.330;19.378;2023-07-30T11:20:47;904.10;;;839.00;;
22565;SDS011;11449;51.330;19.378;2023-07-30T11:25:57;731.00;;;673.90;;
22565;SDS011;11449;51.330;19.378;2023-07-30T11:31:06;1122.00;;;999.90;;
22565;SDS011;11449;51.330;19.378;2023-07-30T11:36:15;66.00;;;17.20;;
22565;SDS011;11449;51.330;19.378;2023-07-30T11:41:23;1099.10;;;999.90;;
22565;SDS011;11449;51.330;19.378;2023-07-30T11:46:31;342.50;;;249.20;;
22565;SDS011;11449;51.330;19.378;2023-07-30T11:51:40;535.70;;;487.40;;
22565;SDS011;11449;51.330;19.378;2023-07-30T11:56:55;124.80;;;59.60;;
22565;SDS011;11449;51.330;19.378;2023-07-30T12:02:03;96.50;;;42.00;;
22565;SDS011;11449;51.330;19.378;2023-07-30T12:07:11;51.80;;;11.40;;
22565;SDS011;11449;51.330;19.378;2023-07-30T12:12:28;14.10;;;4.10;;
22565;SDS011;11449;51.330;19.378;2023-07-30T12:17:36;12.10;;;4.30;;
22565;SDS011;11449;51.330;19.378;2023-07-30T12:22:44;33.90;;;6.50;;
22565;SDS011;11449;51.330;19.378;2023-07-30T12:27:52;248.70;;;164.20;;
22565;SDS011;11449;51.330;19.378;2023-07-30T12:33:00;5.70;;;3.10;;
22565;SDS011;11449;51.330;19.378;2023-07-30T12:38:08;5.10;;;2.60;;
22565;SDS011;11449;51.330;19.378;2023-07-30T12:43:16;5.30;;;2.90;;
22565;SDS011;11449;51.330;19.378;2023-07-30T12:48:26;3.00;;;2.50;;
22565;SDS011;11449;51.330;19.378;2023-07-30T12:53:34;3.10;;;2.10;;
22565;SDS011;11449;51.330;19.378;2023-07-30T12:58:42;3.80;;;2.00;;
22565;SDS011;11449;51.330;19.378;2023-07-30T13:03:50;2.00;;;1.80;;
22565;SDS011;11449;51.330;19.378;2023-07-30T13:08:59;3.80;;;2.00;;
22565;SDS011;11449;51.330;19.378;2023-07-30T13:14:06;2.50;;;1.90;;
22565;SDS011;11449;51.330;19.378;2023-07-30T13:19:14;4.80;;;2.70;;
22565;SDS011;11449;51.330;19.378;2023-07-30T13:24:22;3.10;;;2.10;;
22565;SDS011;11449;51.330;19.378;2023-07-30T13:29:29;11.60;;;3.60;;
22565;SDS011;11449;51.330;19.378;2023-07-30T13:34:38;12.20;;;3.80;;
22565;SDS011;11449;51.330;19.378;2023-07-30T13:39:47;11.70;;;3.80;;
22565;SDS011;11449;51.330;19.378;2023-07-30T13:44:54;9.40;;;3.40;;
22565;SDS011;11449;51.330;19.378;2023-07-30T13:50:02;24.90;;;5.70;;
22565;SDS011;11449;51.330;19.378;2023-07-30T13:55:10;20.80;;;4.60;;
22565;SDS011;11449;51.330;19.378;2023-07-30T14:00:18;24.30;;;5.10;;
22565;SDS011;11449;51.330;19.378;2023-07-30T14:05:25;16.80;;;3.70;;
22565;SDS011;11449;51.330;19.378;2023-07-30T14:10:35;23.40;;;4.80;;
22565;SDS011;11449;51.330;19.378;2023-07-30T14:15:43;23.20;;;4.50;;
22565;SDS011;11449;51.330;19.378;2023-07-30T14:20:51;26.60;;;4.80;;
22565;SDS011;11449;51.330;19.378;2023-07-30T14:25:59;23.10;;;5.30;;
22565;SDS011;11449;51.330;19.378;2023-07-30T14:31:06;25.20;;;5.70;;
22565;SDS011;11449;51.330;19.378;2023-07-30T14:36:14;28.30;;;5.40;;
22565;SDS011;11449;51.330;19.378;2023-07-30T14:41:17;38.10;;;6.30;;
22565;SDS011;11449;51.330;19.378;2023-07-30T14:46:25;37.40;;;8.80;;
22565;SDS011;11449;51.330;19.378;2023-07-30T14:51:33;51.90;;;9.00;;
22565;SDS011;11449;51.330;19.378;2023-07-30T14:56:40;56.70;;;8.10;;
22565;SDS011;11449;51.330;19.378;2023-07-30T15:01:48;116.30;;;13.70;;
22565;SDS011;11449;51.330;19.378;2023-07-30T15:06:56;64.50;;;9.20;;
22565;SDS011;11449;51.330;19.378;2023-07-30T15:12:03;68.90;;;9.80;;
22565;SDS011;11449;51.330;19.378;2023-07-30T15:17:13;34.80;;;4.60;;
22565;SDS011;11449;51.330;19.378;2023-07-30T15:22:21;44.50;;;5.70;;
22565;SDS011;11449;51.330;19.378;2023-07-30T15:27:29;42.90;;;5.10;;
22565;SDS011;11449;51.330;19.378;2023-07-30T15:32:43;48.90;;;7.10;;
22565;SDS011;11449;51.330;19.378;2023-07-30T15:37:51;62.10;;;8.80;;
22565;SDS011;11449;51.330;19.378;2023-07-30T15:42:59;84.80;;;11.50;;
22565;SDS011;11449;51.330;19.378;2023-07-30T15:48:06;95.90;;;17.70;;
22565;SDS011;11449;51.330;19.378;2023-07-30T15:53:14;99.70;;;28.80;;
22565;SDS011;11449;51.330;19.378;2023-07-30T15:58:22;120.90;;;44.50;;
22565;SDS011;11449;51.330;19.378;2023-07-30T16:03:29;69.70;;;18.00;;
22565;SDS011;11449;51.330;19.378;2023-07-30T16:08:42;100.90;;;27.40;;
22565;SDS011;11449;51.330;19.378;2023-07-30T16:13:50;90.00;;;33.60;;
22565;SDS011;11449;51.330;19.378;2023-07-30T16:18:58;173.70;;;85.60;;
22565;SDS011;11449;51.330;19.378;2023-07-30T16:24:07;325.10;;;230.00;;
22565;SDS011;11449;51.330;19.378;2023-07-30T16:29:15;357.60;;;271.50;;
22565;SDS011;11449;51.330;19.378;2023-07-30T16:34:23;203.80;;;127.30;;
22565;SDS011;11449;51.330;19.378;2023-07-30T16:39:30;323.70;;;242.60;;
22565;SDS011;11449;51.330;19.378;2023-07-30T16:44:38;119.50;;;49.00;;
22565;SDS011;11449;51.330;19.378;2023-07-30T16:49:47;257.40;;;159.60;;
22565;SDS011;11449;51.330;19.378;2023-07-30T16:54:55;300.90;;;214.50;;
22565;SDS011;11449;51.330;19.378;2023-07-30T17:00:03;343.50;;;243.60;;
22565;SDS011;11449;51.330;19.378;2023-07-30T17:05:08;1078.20;;;997.60;;
22565;SDS011;11449;51.330;19.378;2023-07-30T17:10:11;1083.70;;;999.20;;
22565;SDS011;11449;51.330;19.378;2023-07-30T17:15:18;1087.20;;;999.40;;
22565;SDS011;11449;51.330;19.378;2023-07-30T17:20:26;1091.50;;;999.90;;
22565;SDS011;11449;51.330;19.378;2023-07-30T17:25:34;1083.60;;;998.30;;
22565;SDS011;11449;51.330;19.378;2023-07-30T17:30:42;1079.10;;;993.90;;
22565;SDS011;11449;51.330;19.378;2023-07-30T17:35:50;291.80;;;205.20;;
22565;SDS011;11449;51.330;19.378;2023-07-30T17:40:58;326.30;;;228.60;;
22565;SDS011;11449;51.330;19.378;2023-07-30T17:46:05;475.30;;;327.30;;
22565;SDS011;11449;51.330;19.378;2023-07-30T17:51:13;371.90;;;238.70;;
22565;SDS011;11449;51.330;19.378;2023-07-30T17:56:22;296.90;;;199.90;;
22565;SDS011;11449;51.330;19.378;2023-07-30T18:01:33;343.80;;;232.80;;
22565;SDS011;11449;51.330;19.378;2023-07-30T18:06:36;387.00;;;275.40;;
22565;SDS011;11449;51.330;19.378;2023-07-30T18:11:44;378.30;;;231.60;;
22565;SDS011;11449;51.330;19.378;2023-07-30T18:16:51;289.20;;;189.70;;
22565;SDS011;11449;51.330;19.378;2023-07-30T18:21:59;236.60;;;110.10;;
22565;SDS011;11449;51.330;19.378;2023-07-30T18:27:07;154.70;;;68.00;;
22565;SDS011;11449;51.330;19.378;2023-07-30T18:32:15;123.60;;;50.40;;
22565;SDS011;11449;51.330;19.378;2023-07-30T18:37:22;100.20;;;34.60;;
22565;SDS011;11449;51.330;19.378;2023-07-30T18:42:30;102.10;;;26.50;;
22565;SDS011;11449;51.330;19.378;2023-07-30T18:47:38;91.70;;;17.80;;
22565;SDS011;11449;51.330;19.378;2023-07-30T18:52:46;86.50;;;18.50;;
22565;SDS011;11449;51.330;19.378;2023-07-30T18:57:54;76.00;;;15.80;;
22565;SDS011;11449;51.330;19.378;2023-07-30T19:03:02;96.70;;;19.30;;
22565;SDS011;11449;51.330;19.378;2023-07-30T19:08:10;79.70;;;14.60;;
22565;SDS011;11449;51.330;19.378;2023-07-30T19:13:17;50.30;;;9.50;;
22565;SDS011;11449;51.330;19.378;2023-07-30T19:18:25;56.80;;;10.50;;
22565;SDS011;11449;51.330;19.378;2023-07-30T19:23:33;65.50;;;13.60;;
22565;SDS011;11449;51.330;19.378;2023-07-30T19:28:40;54.00;;;11.60;;
22565;SDS011;11449;51.330;19.378;2023-07-30T19:33:49;45.60;;;9.00;;
22565;SDS011;11449;51.330;19.378;2023-07-30T19:38:57;45.30;;;9.50;;
22565;SDS011;11449;51.330;19.378;2023-07-30T19:44:04;75.60;;;10.70;;
22565;SDS011;11449;51.330;19.378;2023-07-30T19:49:12;63.20;;;9.50;;
22565;SDS011;11449;51.330;19.378;2023-07-30T19:54:20;112.80;;;30.40;;
22565;SDS011;11449;51.330;19.378;2023-07-30T19:59:27;105.70;;;31.50;;
22565;SDS011;11449;51.330;19.378;2023-07-30T20:04:35;91.20;;;23.70;;
22565;SDS011;11449;51.330;19.378;2023-07-30T20:09:42;79.90;;;18.90;;
22565;SDS011;11449;51.330;19.378;2023-07-30T20:14:50;102.30;;;21.50;;
22565;SDS011;11449;51.330;19.378;2023-07-30T20:19:58;83.90;;;14.10;;
22565;SDS011;11449;51.330;19.378;2023-07-30T20:25:06;75.20;;;11.10;;
22565;SDS011;11449;51.330;19.378;2023-07-30T20:30:13;83.40;;;12.00;;
22565;SDS011;11449;51.330;19.378;2023-07-30T20:35:21;70.00;;;11.50;;
22565;SDS011;11449;51.330;19.378;2023-07-30T20:40:29;55.90;;;9.20;;
22565;SDS011;11449;51.330;19.378;2023-07-30T20:45:36;68.90;;;10.40;;
22565;SDS011;11449;51.330;19.378;2023-07-30T20:50:44;60.70;;;9.60;;
22565;SDS011;11449;51.330;19.378;2023-07-30T20:55:52;45.20;;;8.40;;
22565;SDS011;11449;51.330;19.378;2023-07-30T21:00:55;61.50;;;10.80;;
22565;SDS011;11449;51.330;19.378;2023-07-30T21:06:03;70.00;;;13.80;;
22565;SDS011;11449;51.330;19.378;2023-07-30T21:11:10;59.90;;;10.30;;
22565;SDS011;11449;51.330;19.378;2023-07-30T21:16:18;47.00;;;8.90;;
22565;SDS011;11449;51.330;19.378;2023-07-30T21:21:26;48.50;;;7.80;;
22565;SDS011;11449;51.330;19.378;2023-07-30T21:26:33;49.70;;;10.10;;
22565;SDS011;11449;51.330;19.378;2023-07-30T21:31:41;68.20;;;10.50;;
22565;SDS011;11449;51.330;19.378;2023-07-30T21:36:49;40.60;;;7.80;;
22565;SDS011;11449;51.330;19.378;2023-07-30T21:41:56;65.10;;;10.30;;
22565;SDS011;11449;51.330;19.378;2023-07-30T21:47:04;60.40;;;11.00;;
22565;SDS011;11449;51.330;19.378;2023-07-30T21:52:22;61.90;;;13.90;;
22565;SDS011;11449;51.330;19.378;2023-07-30T21:57:30;55.20;;;14.80;;
22565;SDS011;11449;51.330;19.378;2023-07-30T22:02:38;74.80;;;12.90;;
22565;SDS011;11449;51.330;19.378;2023-07-30T22:07:45;56.20;;;9.50;;
22565;SDS011;11449;51.330;19.378;2023-07-30T22:12:53;57.10;;;13.00;;
22565;SDS011;11449;51.330;19.378;2023-07-30T22:18:02;57.20;;;10.70;;
22565;SDS011;11449;51.330;19.378;2023-07-30T22:23:10;60.30;;;10.50;;
22565;SDS011;11449;51.330;19.378;2023-07-30T22:28:18;52.50;;;11.00;;
22565;SDS011;11449;51.330;19.378;2023-07-30T22:33:25;58.90;;;10.20;;
22565;SDS011;11449;51.330;19.378;2023-07-30T22:38:33;41.30;;;8.20;;
22565;SDS011;11449;51.330;19.378;2023-07-30T22:43:41;50.80;;;10.60;;
22565;SDS011;11449;51.330;19.378;2023-07-30T22:48:48;46.30;;;9.00;;
22565;SDS011;11449;51.330;19.378;2023-07-30T22:53:56;51.20;;;9.90;;
22565;SDS011;11449;51.330;19.378;2023-07-30T22:59:05;38.10;;;7.00;;
22565;SDS011;11449;51.330;19.378;2023-07-30T23:04:12;41.90;;;6.50;;
22565;SDS011;11449;51.330;19.378;2023-07-30T23:09:21;45.30;;;6.50;;
22565;SDS011;11449;51.330;19.378;2023-07-30T23:14:29;40.00;;;5.80;;
22565;SDS011;11449;51.330;19.378;2023-07-30T23:19:36;49.60;;;8.20;;
22565;SDS011;11449;51.330;19.378;2023-07-30T23:24:44;55.20;;;8.80;;
22565;SDS011;11449;51.330;19.378;2023-07-30T23:29:51;56.10;;;8.70;;
22565;SDS011;11449;51.330;19.378;2023-07-30T23:34:59;68.10;;;11.10;;
22565;SDS011;11449;51.330;19.378;2023-07-30T23:40:07;71.90;;;11.40;;
22565;SDS011;11449;51.330;19.378;2023-07-30T23:45:15;63.10;;;10.10;;
22565;SDS011;11449;51.330;19.378;2023-07-30T23:50:23;58.30;;;10.30;;
22565;SDS011;11449;51.330;19.378;2023-07-30T23:55:30;55.30;;;8.80;;
